sensor_id;sensor_type;location;lat;lon;timestamp;temperature;humidity
64918;HTU21D;52176;44.858;38.372;2023-04-08T00:01:57;9.67;89.83
64918;HTU21D;52176;44.858;38.372;2023-04-08T00:04:22;9.72;90.27
64918;HTU21D;52176;44.858;38.372;2023-04-08T00:06:48;9.81;89.36
64918;HTU21D;52176;44.858;38.372;2023-04-08T00:09:14;9.80;88.89
64918;HTU21D;52176;44.858;38.372;2023-04-08T00:11:40;9.72;90.14
64918;HTU21D;52176;44.858;38.372;2023-04-08T00:14:07;9.78;90.18
64918;HTU21D;52176;44.858;38.372;2023-04-08T00:16:32;9.85;89.81
64918;HTU21D;52176;44.858;38.372;2023-04-08T00:18:58;9.93;88.96
64918;HTU21D;52176;44.858;38.372;2023-04-08T00:21:24;9.90;88.61
64918;HTU21D;52176;44.858;38.372;2023-04-08T00:23:51;9.83;88.47
64918;HTU21D;52176;44.858;38.372;2023-04-08T00:26:17;9.76;88.37
64918;HTU21D;52176;44.858;38.372;2023-04-08T00:28:43;9.66;88.31
64918;HTU21D;52176;44.858;38.372;2023-04-08T00:31:09;9.56;88.35
64918;HTU21D;52176;44.858;38.372;2023-04-08T00:33:35;9.49;90.01
64918;HTU21D;52176;44.858;38.372;2023-04-08T00:36:01;9.52;89.30
64918;HTU21D;52176;44.858;38.372;2023-04-08T00:38:27;9.46;90.03
64918;HTU21D;52176;44.858;38.372;2023-04-08T00:40:53;9.50;90.21
64918;HTU21D;52176;44.858;38.372;2023-04-08T00:43:19;9.55;89.28
64918;HTU21D;52176;44.858;38.372;2023-04-08T00:45:46;9.44;89.38
64918;HTU21D;52176;44.858;38.372;2023-04-08T00:48:12;9.46;88.67
64918;HTU21D;52176;44.858;38.372;2023-04-08T00:50:38;9.34;89.20
64918;HTU21D;52176;44.858;38.372;2023-04-08T00:53:04;9.36;88.51
64918;HTU21D;52176;44.858;38.372;2023-04-08T00:55:30;9.25;89.22
64918;HTU21D;52176;44.858;38.372;2023-04-08T00:57:56;9.32;88.47
64918;HTU21D;52176;44.858;38.372;2023-04-08T01:00:22;9.21;88.08
64918;HTU21D;52176;44.858;38.372;2023-04-08T01:02:54;9.10;87.99
64918;HTU21D;52176;44.858;38.372;2023-04-08T01:08:07;8.83;87.93
64918;HTU21D;52176;44.858;38.372;2023-04-08T01:10:34;8.71;89.64
64918;HTU21D;52176;44.858;38.372;2023-04-08T01:13:03;8.74;88.98
64918;HTU21D;52176;44.858;38.372;2023-04-08T01:15:30;8.72;90.13
64918;HTU21D;52176;44.858;38.372;2023-04-08T01:17:58;8.79;89.25
64918;HTU21D;52176;44.858;38.372;2023-04-08T01:20:25;8.76;90.26
64918;HTU21D;52176;44.858;38.372;2023-04-08T01:25:28;8.79;88.92
64918;HTU21D;52176;44.858;38.372;2023-04-08T01:27:54;8.68;88.69
64918;HTU21D;52176;44.858;38.372;2023-04-08T01:30:22;8.56;88.41
64918;HTU21D;52176;44.858;38.372;2023-04-08T01:32:49;8.44;88.53
64918;HTU21D;52176;44.858;38.372;2023-04-08T01:35:16;8.36;88.58
64918;HTU21D;52176;44.858;38.372;2023-04-08T01:37:42;8.29;88.63
64918;HTU21D;52176;44.858;38.372;2023-04-08T01:40:09;8.23;90.23
64918;HTU21D;52176;44.858;38.372;2023-04-08T01:42:36;8.33;90.57
64918;HTU21D;52176;44.858;38.372;2023-04-08T01:45:02;8.44;89.66
64918;HTU21D;52176;44.858;38.372;2023-04-08T01:47:29;8.41;89.10
64918;HTU21D;52176;44.858;38.372;2023-04-08T01:49:55;8.36;90.49
64918;HTU21D;52176;44.858;38.372;2023-04-08T01:52:22;8.41;89.70
64918;HTU21D;52176;44.858;38.372;2023-04-08T01:54:48;8.39;89.34
64918;HTU21D;52176;44.858;38.372;2023-04-08T01:57:21;8.36;90.63
64918;HTU21D;52176;44.858;38.372;2023-04-08T01:59:49;8.42;89.79
64918;HTU21D;52176;44.858;38.372;2023-04-08T02:02:16;8.38;89.42
64918;HTU21D;52176;44.858;38.372;2023-04-08T02:04:43;8.32;89.25
64918;HTU21D;52176;44.858;38.372;2023-04-08T02:07:09;8.24;89.15
64918;HTU21D;52176;44.858;38.372;2023-04-08T02:09:36;8.19;90.74
64918;HTU21D;52176;44.858;38.372;2023-04-08T02:12:02;8.26;90.03
64918;HTU21D;52176;44.858;38.372;2023-04-08T02:14:27;8.22;89.52
64918;HTU21D;52176;44.858;38.372;2023-04-08T02:16:56;8.18;90.84
64918;HTU21D;52176;44.858;38.372;2023-04-08T02:19:34;8.24;90.09
64918;HTU21D;52176;44.858;38.372;2023-04-08T02:22:04;8.24;90.84
64918;HTU21D;52176;44.858;38.372;2023-04-08T02:24:32;8.33;90.62
64918;HTU21D;52176;44.858;38.372;2023-04-08T02:26:58;8.39;89.80
64918;HTU21D;52176;44.858;38.372;2023-04-08T02:29:25;8.38;89.41
64918;HTU21D;52176;44.858;38.372;2023-04-08T02:31:52;8.29;90.37
64918;HTU21D;52176;44.858;38.372;2023-04-08T02:34:19;8.35;90.37
64918;HTU21D;52176;44.858;38.372;2023-04-08T02:36:46;8.42;90.08
64918;HTU21D;52176;44.858;38.372;2023-04-08T02:39:12;8.50;89.81
64918;HTU21D;52176;44.858;38.372;2023-04-08T02:41:38;8.56;89.58
64918;HTU21D;52176;44.858;38.372;2023-04-08T02:44:04;8.62;88.76
64918;HTU21D;52176;44.858;38.372;2023-04-08T02:46:30;8.57;88.47
64918;HTU21D;52176;44.858;38.372;2023-04-08T02:48:56;8.45;89.60
64918;HTU21D;52176;44.858;38.372;2023-04-08T02:51:21;8.47;88.86
64918;HTU21D;52176;44.858;38.372;2023-04-08T02:53:47;8.37;89.93
64918;HTU21D;52176;44.858;38.372;2023-04-08T02:56:13;8.42;89.09
64918;HTU21D;52176;44.858;38.372;2023-04-08T02:58:39;8.35;88.75
64918;HTU21D;52176;44.858;38.372;2023-04-08T03:01:05;8.24;88.63
64918;HTU21D;52176;44.858;38.372;2023-04-08T03:03:31;8.14;88.63
64918;HTU21D;52176;44.858;38.372;2023-04-08T03:05:57;7.99;88.52
64918;HTU21D;52176;44.858;38.372;2023-04-08T03:08:23;7.87;88.61
64918;HTU21D;52176;44.858;38.372;2023-04-08T03:10:49;7.77;88.73
64918;HTU21D;52176;44.858;38.372;2023-04-08T03:13:16;7.71;88.83
64918;HTU21D;52176;44.858;38.372;2023-04-08T03:15:42;7.68;88.89
64918;HTU21D;52176;44.858;38.372;2023-04-08T03:18:08;7.67;88.96
64918;HTU21D;52176;44.858;38.372;2023-04-08T03:20:34;7.67;88.94
64918;HTU21D;52176;44.858;38.372;2023-04-08T03:23:00;7.67;88.87
64918;HTU21D;52176;44.858;38.372;2023-04-08T03:25:26;7.68;88.87
64918;HTU21D;52176;44.858;38.372;2023-04-08T03:27:54;7.65;88.86
64918;HTU21D;52176;44.858;38.372;2023-04-08T03:30:20;7.65;88.86
64918;HTU21D;52176;44.858;38.372;2023-04-08T03:32:46;7.67;88.86
64918;HTU21D;52176;44.858;38.372;2023-04-08T03:35:12;7.69;88.87
64918;HTU21D;52176;44.858;38.372;2023-04-08T03:37:38;7.73;88.89
64918;HTU21D;52176;44.858;38.372;2023-04-08T03:40:04;7.78;88.89
64918;HTU21D;52176;44.858;38.372;2023-04-08T03:42:30;7.83;88.88
64918;HTU21D;52176;44.858;38.372;2023-04-08T03:44:57;7.89;88.83
64918;HTU21D;52176;44.858;38.372;2023-04-08T03:47:23;7.96;88.80
64918;HTU21D;52176;44.858;38.372;2023-04-08T03:49:52;8.02;88.76
64918;HTU21D;52176;44.858;38.372;2023-04-08T03:52:19;8.07;88.70
64918;HTU21D;52176;44.858;38.372;2023-04-08T03:54:45;8.14;88.64
64918;HTU21D;52176;44.858;38.372;2023-04-08T03:57:11;8.22;88.62
64918;HTU21D;52176;44.858;38.372;2023-04-08T03:59:37;8.32;88.55
64918;HTU21D;52176;44.858;38.372;2023-04-08T04:02:05;8.39;88.43
64918;HTU21D;52176;44.858;38.372;2023-04-08T04:04:31;8.45;88.38
64918;HTU21D;52176;44.858;38.372;2023-04-08T04:06:58;8.51;88.37
64918;HTU21D;52176;44.858;38.372;2023-04-08T04:09:24;8.59;88.32
64918;HTU21D;52176;44.858;38.372;2023-04-08T04:11:50;8.62;88.29
64918;HTU21D;52176;44.858;38.372;2023-04-08T04:14:16;8.65;88.28
64918;HTU21D;52176;44.858;38.372;2023-04-08T04:16:42;8.74;88.26
64918;HTU21D;52176;44.858;38.372;2023-04-08T04:19:08;8.77;88.23
64918;HTU21D;52176;44.858;38.372;2023-04-08T04:21:34;8.83;88.17
64918;HTU21D;52176;44.858;38.372;2023-04-08T04:24:00;8.88;88.12
64918;HTU21D;52176;44.858;38.372;2023-04-08T04:26:26;8.93;88.10
64918;HTU21D;52176;44.858;38.372;2023-04-08T04:28:51;9.01;88.09
64918;HTU21D;52176;44.858;38.372;2023-04-08T04:31:21;9.16;88.01
64918;HTU21D;52176;44.858;38.372;2023-04-08T04:33:48;9.35;87.84
64918;HTU21D;52176;44.858;38.372;2023-04-08T04:36:14;9.57;87.65
64918;HTU21D;52176;44.858;38.372;2023-04-08T04:38:40;9.77;87.42
64918;HTU21D;52176;44.858;38.372;2023-04-08T04:41:07;9.94;87.24
64918;HTU21D;52176;44.858;38.372;2023-04-08T04:43:33;10.10;87.13
64918;HTU21D;52176;44.858;38.372;2023-04-08T04:46:00;10.26;87.03
64918;HTU21D;52176;44.858;38.372;2023-04-08T04:48:26;10.38;86.91
64918;HTU21D;52176;44.858;38.372;2023-04-08T04:50:56;10.53;86.89
64918;HTU21D;52176;44.858;38.372;2023-04-08T04:53:22;10.71;86.68
64918;HTU21D;52176;44.858;38.372;2023-04-08T04:55:49;10.86;86.54
64918;HTU21D;52176;44.858;38.372;2023-04-08T04:58:16;11.01;86.44
64918;HTU21D;52176;44.858;38.372;2023-04-08T05:00:43;11.15;86.33
64918;HTU21D;52176;44.858;38.372;2023-04-08T05:03:09;11.27;86.22
64918;HTU21D;52176;44.858;38.372;2023-04-08T05:05:35;11.39;86.09
64918;HTU21D;52176;44.858;38.372;2023-04-08T05:08:01;11.49;86.00
64918;HTU21D;52176;44.858;38.372;2023-04-08T05:10:27;11.61;85.89
64918;HTU21D;52176;44.858;38.372;2023-04-08T05:12:54;11.75;85.77
64918;HTU21D;52176;44.858;38.372;2023-04-08T05:15:20;11.84;85.66
64918;HTU21D;52176;44.858;38.372;2023-04-08T05:17:47;11.89;85.58
64918;HTU21D;52176;44.858;38.372;2023-04-08T05:20:13;11.99;85.57
64918;HTU21D;52176;44.858;38.372;2023-04-08T05:22:38;12.16;85.45
64918;HTU21D;52176;44.858;38.372;2023-04-08T05:25:05;12.31;85.18
64918;HTU21D;52176;44.858;38.372;2023-04-08T05:27:31;12.46;85.02
64918;HTU21D;52176;44.858;38.372;2023-04-08T05:29:57;12.63;84.80
64918;HTU21D;52176;44.858;38.372;2023-04-08T05:32:23;12.75;84.58
64918;HTU21D;52176;44.858;38.372;2023-04-08T05:34:49;12.82;84.42
64918;HTU21D;52176;44.858;38.372;2023-04-08T05:37:15;12.87;84.36
64918;HTU21D;52176;44.858;38.372;2023-04-08T05:39:41;12.90;84.31
64918;HTU21D;52176;44.858;38.372;2023-04-08T05:42:07;12.99;84.20
64918;HTU21D;52176;44.858;38.372;2023-04-08T05:44:33;13.00;83.99
64918;HTU21D;52176;44.858;38.372;2023-04-08T05:46:59;12.89;84.03
64918;HTU21D;52176;44.858;38.372;2023-04-08T05:49:25;12.80;84.22
64918;HTU21D;52176;44.858;38.372;2023-04-08T05:51:51;12.73;84.26
64918;HTU21D;52176;44.858;38.372;2023-04-08T05:54:17;12.66;84.48
64918;HTU21D;52176;44.858;38.372;2023-04-08T05:56:42;12.67;84.46
64918;HTU21D;52176;44.858;38.372;2023-04-08T05:59:10;12.61;84.39
64918;HTU21D;52176;44.858;38.372;2023-04-08T06:01:36;12.62;84.55
64918;HTU21D;52176;44.858;38.372;2023-04-08T06:04:03;12.71;84.48
64918;HTU21D;52176;44.858;38.372;2023-04-08T06:06:29;12.81;84.33
64918;HTU21D;52176;44.858;38.372;2023-04-08T06:08:54;12.94;84.16
64918;HTU21D;52176;44.858;38.372;2023-04-08T06:11:21;13.09;83.93
64918;HTU21D;52176;44.858;38.372;2023-04-08T06:13:47;13.20;83.74
64918;HTU21D;52176;44.858;38.372;2023-04-08T06:16:16;13.27;83.68
64918;HTU21D;52176;44.858;38.372;2023-04-08T06:18:42;13.36;83.49
64918;HTU21D;52176;44.858;38.372;2023-04-08T06:21:09;13.41;83.39
64918;HTU21D;52176;44.858;38.372;2023-04-08T06:23:35;13.49;83.26
64918;HTU21D;52176;44.858;38.372;2023-04-08T06:26:01;13.59;83.09
64918;HTU21D;52176;44.858;38.372;2023-04-08T06:28:28;13.69;82.87
64918;HTU21D;52176;44.858;38.372;2023-04-08T06:30:56;13.80;82.63
64918;HTU21D;52176;44.858;38.372;2023-04-08T06:33:22;13.86;82.48
64918;HTU21D;52176;44.858;38.372;2023-04-08T06:35:48;13.97;82.36
64918;HTU21D;52176;44.858;38.372;2023-04-08T06:38:13;14.12;82.16
64918;HTU21D;52176;44.858;38.372;2023-04-08T06:40:39;14.32;81.82
64918;HTU21D;52176;44.858;38.372;2023-04-08T06:43:05;14.34;80.77
64918;HTU21D;52176;44.858;38.372;2023-04-08T06:45:38;14.64;79.85
64918;HTU21D;52176;44.858;38.372;2023-04-08T06:48:03;15.08;79.29
64918;HTU21D;52176;44.858;38.372;2023-04-08T06:54:06;15.62;78.34
64918;HTU21D;52176;44.858;38.372;2023-04-08T06:56:34;15.67;78.18
64918;HTU21D;52176;44.858;38.372;2023-04-08T06:59:01;15.55;75.80
64918;HTU21D;52176;44.858;38.372;2023-04-08T07:01:27;15.92;76.02
64918;HTU21D;52176;44.858;38.372;2023-04-08T07:03:53;16.22;76.21
64918;HTU21D;52176;44.858;38.372;2023-04-08T07:06:19;16.51;75.87
64918;HTU21D;52176;44.858;38.372;2023-04-08T07:08:45;16.62;75.51
64918;HTU21D;52176;44.858;38.372;2023-04-08T07:11:10;16.59;75.41
64918;HTU21D;52176;44.858;38.372;2023-04-08T07:13:36;16.60;75.50
64918;HTU21D;52176;44.858;38.372;2023-04-08T07:16:02;17.08;75.16
64918;HTU21D;52176;44.858;38.372;2023-04-08T07:18:28;17.70;74.06
64918;HTU21D;52176;44.858;38.372;2023-04-08T07:24:30;19.25;71.42
64918;HTU21D;52176;44.858;38.372;2023-04-08T07:26:56;18.93;65.08
64918;HTU21D;52176;44.858;38.372;2023-04-08T07:29:22;19.07;66.78
64918;HTU21D;52176;44.858;38.372;2023-04-08T07:31:48;18.98;67.63
64918;HTU21D;52176;44.858;38.372;2023-04-08T07:34:14;18.92;68.25
64918;HTU21D;52176;44.858;38.372;2023-04-08T07:36:39;19.31;68.20
64918;HTU21D;52176;44.858;38.372;2023-04-08T07:39:05;20.19;67.27
64918;HTU21D;52176;44.858;38.372;2023-04-08T07:41:31;21.28;65.65
64918;HTU21D;52176;44.858;38.372;2023-04-08T07:43:57;22.23;63.72
64918;HTU21D;52176;44.858;38.372;2023-04-08T07:46:23;22.95;62.36
64918;HTU21D;52176;44.858;38.372;2023-04-08T07:48:49;23.23;61.58
64918;HTU21D;52176;44.858;38.372;2023-04-08T07:51:14;23.18;61.23
64918;HTU21D;52176;44.858;38.372;2023-04-08T07:53:40;22.98;61.31
64918;HTU21D;52176;44.858;38.372;2023-04-08T07:56:10;22.91;61.25
64918;HTU21D;52176;44.858;38.372;2023-04-08T07:58:36;22.84;61.15
64918;HTU21D;52176;44.858;38.372;2023-04-08T08:01:02;22.84;60.88
64918;HTU21D;52176;44.858;38.372;2023-04-08T08:03:28;22.77;60.39
64918;HTU21D;52176;44.858;38.372;2023-04-08T08:05:54;22.10;55.94
64918;HTU21D;52176;44.858;38.372;2023-04-08T08:08:20;22.10;57.76
64918;HTU21D;52176;44.858;38.372;2023-04-08T08:10:45;21.48;55.59
64918;HTU21D;52176;44.858;38.372;2023-04-08T08:13:11;21.57;57.71
64918;HTU21D;52176;44.858;38.372;2023-04-08T08:15:41;21.28;58.75
64918;HTU21D;52176;44.858;38.372;2023-04-08T08:18:07;20.69;58.10
64918;HTU21D;52176;44.858;38.372;2023-04-08T08:20:34;20.70;59.28
64918;HTU21D;52176;44.858;38.372;2023-04-08T08:23:00;20.68;60.25
64918;HTU21D;52176;44.858;38.372;2023-04-08T08:25:26;20.63;60.80
64918;HTU21D;52176;44.858;38.372;2023-04-08T08:27:52;20.81;60.94
64918;HTU21D;52176;44.858;38.372;2023-04-08T08:30:17;21.24;60.83
64918;HTU21D;52176;44.858;38.372;2023-04-08T08:32:45;21.62;57.73
64918;HTU21D;52176;44.858;38.372;2023-04-08T08:35:11;22.41;57.68
64918;HTU21D;52176;44.858;38.372;2023-04-08T08:37:55;22.92;57.10
64918;HTU21D;52176;44.858;38.372;2023-04-08T08:44:15;22.67;56.95
64918;HTU21D;52176;44.858;38.372;2023-04-08T08:46:44;22.38;57.26
64918;HTU21D;52176;44.858;38.372;2023-04-08T08:49:11;22.17;57.50
64918;HTU21D;52176;44.858;38.372;2023-04-08T08:51:38;21.91;57.85
64918;HTU21D;52176;44.858;38.372;2023-04-08T08:54:04;21.70;57.93
64918;HTU21D;52176;44.858;38.372;2023-04-08T08:56:42;21.46;57.93
64918;HTU21D;52176;44.858;38.372;2023-04-08T08:59:08;21.20;57.96
64918;HTU21D;52176;44.858;38.372;2023-04-08T09:01:35;21.01;58.34
64918;HTU21D;52176;44.858;38.372;2023-04-08T09:04:20;20.93;58.51
64918;HTU21D;52176;44.858;38.372;2023-04-08T09:06:47;20.87;58.73
64918;HTU21D;52176;44.858;38.372;2023-04-08T09:09:14;20.90;58.82
64918;HTU21D;52176;44.858;38.372;2023-04-08T09:11:41;21.04;58.92
64918;HTU21D;52176;44.858;38.372;2023-04-08T09:14:17;21.25;58.82
64918;HTU21D;52176;44.858;38.372;2023-04-08T09:16:42;21.46;58.25
64918;HTU21D;52176;44.858;38.372;2023-04-08T09:19:09;21.59;57.84
64918;HTU21D;52176;44.858;38.372;2023-04-08T09:21:35;21.78;57.50
64918;HTU21D;52176;44.858;38.372;2023-04-08T09:24:01;22.16;57.10
64918;HTU21D;52176;44.858;38.372;2023-04-08T09:26:45;22.61;56.41
64918;HTU21D;52176;44.858;38.372;2023-04-08T09:29:12;22.85;55.77
64918;HTU21D;52176;44.858;38.372;2023-04-08T09:31:38;23.03;55.52
64918;HTU21D;52176;44.858;38.372;2023-04-08T09:34:10;23.22;55.10
64918;HTU21D;52176;44.858;38.372;2023-04-08T09:36:37;23.20;54.65
64918;HTU21D;52176;44.858;38.372;2023-04-08T09:39:02;23.00;54.63
64918;HTU21D;52176;44.858;38.372;2023-04-08T09:41:28;22.76;54.99
64918;HTU21D;52176;44.858;38.372;2023-04-08T09:43:58;22.56;55.16
64918;HTU21D;52176;44.858;38.372;2023-04-08T09:46:26;22.42;55.57
64918;HTU21D;52176;44.858;38.372;2023-04-08T09:49:12;22.40;55.16
64918;HTU21D;52176;44.858;38.372;2023-04-08T09:51:48;22.50;55.92
64918;HTU21D;52176;44.858;38.372;2023-04-08T09:54:16;22.58;56.05
64918;HTU21D;52176;44.858;38.372;2023-04-08T09:56:46;22.86;55.51
64918;HTU21D;52176;44.858;38.372;2023-04-08T09:59:14;23.16;54.71
64918;HTU21D;52176;44.858;38.372;2023-04-08T10:01:51;23.25;54.21
64918;HTU21D;52176;44.858;38.372;2023-04-08T10:04:17;23.25;53.96
64918;HTU21D;52176;44.858;38.372;2023-04-08T10:06:47;23.18;53.69
64918;HTU21D;52176;44.858;38.372;2023-04-08T10:09:16;22.97;53.41
64918;HTU21D;52176;44.858;38.372;2023-04-08T10:11:41;22.71;53.78
64918;HTU21D;52176;44.858;38.372;2023-04-08T10:14:08;22.47;54.32
64918;HTU21D;52176;44.858;38.372;2023-04-08T10:16:34;22.34;54.57
64918;HTU21D;52176;44.858;38.372;2023-04-08T10:19:00;22.26;54.77
64918;HTU21D;52176;44.858;38.372;2023-04-08T10:21:39;22.28;54.42
64918;HTU21D;52176;44.858;38.372;2023-04-08T10:24:08;22.32;54.36
64918;HTU21D;52176;44.858;38.372;2023-04-08T10:26:41;22.27;54.43
64918;HTU21D;52176;44.858;38.372;2023-04-08T10:31:39;21.99;54.56
64918;HTU21D;52176;44.858;38.372;2023-04-08T10:34:25;21.87;54.82
64918;HTU21D;52176;44.858;38.372;2023-04-08T10:36:52;21.74;54.98
64918;HTU21D;52176;44.858;38.372;2023-04-08T10:39:18;21.61;55.43
64918;HTU21D;52176;44.858;38.372;2023-04-08T10:41:45;21.50;55.67
64918;HTU21D;52176;44.858;38.372;2023-04-08T10:44:15;21.49;55.87
64918;HTU21D;52176;44.858;38.372;2023-04-08T10:46:42;21.60;56.03
64918;HTU21D;52176;44.858;38.372;2023-04-08T10:49:08;21.72;55.79
64918;HTU21D;52176;44.858;38.372;2023-04-08T10:51:34;21.78;55.68
64918;HTU21D;52176;44.858;38.372;2023-04-08T10:54:08;21.77;55.69
64918;HTU21D;52176;44.858;38.372;2023-04-08T10:56:42;21.65;55.75
64918;HTU21D;52176;44.858;38.372;2023-04-08T10:59:08;21.45;55.95
64918;HTU21D;52176;44.858;38.372;2023-04-08T11:01:38;21.21;56.41
64918;HTU21D;52176;44.858;38.372;2023-04-08T11:06:37;20.79;57.16
64918;HTU21D;52176;44.858;38.372;2023-04-08T11:09:03;20.59;57.31
64918;HTU21D;52176;44.858;38.372;2023-04-08T11:11:29;20.41;57.78
64918;HTU21D;52176;44.858;38.372;2023-04-08T11:13:55;20.27;58.14
64918;HTU21D;52176;44.858;38.372;2023-04-08T11:16:21;20.12;58.43
64918;HTU21D;52176;44.858;38.372;2023-04-08T11:18:47;19.98;58.84
64918;HTU21D;52176;44.858;38.372;2023-04-08T11:21:15;19.83;59.08
64918;HTU21D;52176;44.858;38.372;2023-04-08T11:23:41;19.67;59.39
64918;HTU21D;52176;44.858;38.372;2023-04-08T11:26:07;19.55;59.73
64918;HTU21D;52176;44.858;38.372;2023-04-08T11:28:33;19.44;60.14
64918;HTU21D;52176;44.858;38.372;2023-04-08T11:30:59;19.39;60.29
64918;HTU21D;52176;44.858;38.372;2023-04-08T11:33:29;19.38;60.25
64918;HTU21D;52176;44.858;38.372;2023-04-08T11:35:55;19.41;60.35
64918;HTU21D;52176;44.858;38.372;2023-04-08T11:38:21;19.42;60.14
64918;HTU21D;52176;44.858;38.372;2023-04-08T11:40:54;19.25;60.17
64918;HTU21D;52176;44.858;38.372;2023-04-08T11:43:21;19.10;60.49
64918;HTU21D;52176;44.858;38.372;2023-04-08T11:45:47;18.95;60.93
64918;HTU21D;52176;44.858;38.372;2023-04-08T11:48:13;18.86;61.25
64918;HTU21D;52176;44.858;38.372;2023-04-08T11:50:39;18.81;61.29
64918;HTU21D;52176;44.858;38.372;2023-04-08T11:53:24;18.65;61.38
64918;HTU21D;52176;44.858;38.372;2023-04-08T11:55:50;18.51;61.60
64918;HTU21D;52176;44.858;38.372;2023-04-08T11:58:16;18.38;61.74
64918;HTU21D;52176;44.858;38.372;2023-04-08T12:00:42;18.26;62.03
64918;HTU21D;52176;44.858;38.372;2023-04-08T12:03:08;18.22;62.45
64918;HTU21D;52176;44.858;38.372;2023-04-08T12:05:34;18.23;62.71
64918;HTU21D;52176;44.858;38.372;2023-04-08T12:08:00;18.20;62.95
64918;HTU21D;52176;44.858;38.372;2023-04-08T12:10:27;18.10;63.28
64918;HTU21D;52176;44.858;38.372;2023-04-08T12:12:52;18.00;63.65
64918;HTU21D;52176;44.858;38.372;2023-04-08T12:15:18;17.94;63.94
64918;HTU21D;52176;44.858;38.372;2023-04-08T12:17:44;17.84;64.19
64918;HTU21D;52176;44.858;38.372;2023-04-08T12:20:10;17.73;64.53
64918;HTU21D;52176;44.858;38.372;2023-04-08T12:22:36;17.63;64.82
64918;HTU21D;52176;44.858;38.372;2023-04-08T12:25:02;17.49;65.09
64918;HTU21D;52176;44.858;38.372;2023-04-08T12:27:29;17.40;65.46
64918;HTU21D;52176;44.858;38.372;2023-04-08T12:29:54;17.33;65.83
64918;HTU21D;52176;44.858;38.372;2023-04-08T12:32:21;17.24;66.14
64918;HTU21D;52176;44.858;38.372;2023-04-08T12:34:47;17.10;68.97
64918;HTU21D;52176;44.858;38.372;2023-04-08T12:37:13;17.20;67.87
64918;HTU21D;52176;44.858;38.372;2023-04-08T12:39:38;17.19;67.49
64918;HTU21D;52176;44.858;38.372;2023-04-08T12:42:04;17.09;66.91
64918;HTU21D;52176;44.858;38.372;2023-04-08T12:44:30;16.86;66.30
64918;HTU21D;52176;44.858;38.372;2023-04-08T12:46:56;16.57;66.51
64918;HTU21D;52176;44.858;38.372;2023-04-08T12:49:25;16.29;65.94
64918;HTU21D;52176;44.858;38.372;2023-04-08T12:51:51;15.96;65.95
64918;HTU21D;52176;44.858;38.372;2023-04-08T12:54:18;15.60;66.42
64918;HTU21D;52176;44.858;38.372;2023-04-08T12:56:44;15.24;67.04
64918;HTU21D;52176;44.858;38.372;2023-04-08T12:59:10;14.91;67.55
64918;HTU21D;52176;44.858;38.372;2023-04-08T13:01:36;14.62;68.10
64918;HTU21D;52176;44.858;38.372;2023-04-08T13:04:02;14.37;68.68
64918;HTU21D;52176;44.858;38.372;2023-04-08T13:06:28;14.17;69.09
64918;HTU21D;52176;44.858;38.372;2023-04-08T13:08:53;13.96;69.47
64918;HTU21D;52176;44.858;38.372;2023-04-08T13:11:19;13.77;69.97
64918;HTU21D;52176;44.858;38.372;2023-04-08T13:13:45;13.62;70.25
64918;HTU21D;52176;44.858;38.372;2023-04-08T13:16:12;13.48;70.69
64918;HTU21D;52176;44.858;38.372;2023-04-08T13:18:38;13.31;70.77
64918;HTU21D;52176;44.858;38.372;2023-04-08T13:21:05;13.08;76.86
64918;HTU21D;52176;44.858;38.372;2023-04-08T13:23:31;13.25;74.92
64918;HTU21D;52176;44.858;38.372;2023-04-08T13:25:57;13.22;78.67
64918;HTU21D;52176;44.858;38.372;2023-04-08T13:28:23;13.40;76.66
64918;HTU21D;52176;44.858;38.372;2023-04-08T13:30:49;13.38;80.00
64918;HTU21D;52176;44.858;38.372;2023-04-08T13:33:15;13.54;80.90
64918;HTU21D;52176;44.858;38.372;2023-04-08T13:35:41;13.75;78.53
64918;HTU21D;52176;44.858;38.372;2023-04-08T13:38:07;13.70;77.40
64918;HTU21D;52176;44.858;38.372;2023-04-08T13:40:33;13.69;76.70
64918;HTU21D;52176;44.858;38.372;2023-04-08T13:42:58;13.59;76.28
64918;HTU21D;52176;44.858;38.372;2023-04-08T13:45:24;13.43;79.62
64918;HTU21D;52176;44.858;38.372;2023-04-08T13:47:50;13.48;78.23
64918;HTU21D;52176;44.858;38.372;2023-04-08T13:50:16;13.47;77.67
64918;HTU21D;52176;44.858;38.372;2023-04-08T13:52:42;13.43;77.33
64918;HTU21D;52176;44.858;38.372;2023-04-08T13:55:08;13.40;76.89
64918;HTU21D;52176;44.858;38.372;2023-04-08T13:57:34;13.33;76.47
64918;HTU21D;52176;44.858;38.372;2023-04-08T14:00:00;13.20;76.35
64918;HTU21D;52176;44.858;38.372;2023-04-08T14:02:25;13.12;76.54
64918;HTU21D;52176;44.858;38.372;2023-04-08T14:04:51;13.04;76.66
64918;HTU21D;52176;44.858;38.372;2023-04-08T14:07:17;12.97;76.78
64918;HTU21D;52176;44.858;38.372;2023-04-08T14:09:44;12.94;77.22
64918;HTU21D;52176;44.858;38.372;2023-04-08T14:12:10;13.14;77.29
64918;HTU21D;52176;44.858;38.372;2023-04-08T14:14:35;13.41;77.29
64918;HTU21D;52176;44.858;38.372;2023-04-08T14:17:01;13.97;83.52
64918;HTU21D;52176;44.858;38.372;2023-04-08T14:19:27;14.81;80.46
64918;HTU21D;52176;44.858;38.372;2023-04-08T14:21:53;15.82;77.50
64918;HTU21D;52176;44.858;38.372;2023-04-08T14:24:19;16.48;75.23
64918;HTU21D;52176;44.858;38.372;2023-04-08T14:26:44;16.85;72.58
64918;HTU21D;52176;44.858;38.372;2023-04-08T14:29:10;17.09;71.24
64918;HTU21D;52176;44.858;38.372;2023-04-08T14:31:36;17.26;70.87
64918;HTU21D;52176;44.858;38.372;2023-04-08T14:34:02;17.13;71.00
64918;HTU21D;52176;44.858;38.372;2023-04-08T14:36:28;16.88;71.33
64918;HTU21D;52176;44.858;38.372;2023-04-08T14:38:55;16.58;72.52
64918;HTU21D;52176;44.858;38.372;2023-04-08T14:41:21;16.45;72.93
64918;HTU21D;52176;44.858;38.372;2023-04-08T14:43:47;16.39;72.57
64918;HTU21D;52176;44.858;38.372;2023-04-08T14:46:13;16.17;72.76
64918;HTU21D;52176;44.858;38.372;2023-04-08T14:48:40;15.95;74.13
64918;HTU21D;52176;44.858;38.372;2023-04-08T14:51:05;15.88;74.70
64918;HTU21D;52176;44.858;38.372;2023-04-08T14:53:31;15.84;73.94
64918;HTU21D;52176;44.858;38.372;2023-04-08T14:55:58;15.68;73.74
64918;HTU21D;52176;44.858;38.372;2023-04-08T14:58:24;15.44;73.84
64918;HTU21D;52176;44.858;38.372;2023-04-08T15:00:50;15.27;74.20
64918;HTU21D;52176;44.858;38.372;2023-04-08T15:03:15;15.12;76.39
64918;HTU21D;52176;44.858;38.372;2023-04-08T15:05:54;15.14;75.48
64918;HTU21D;52176;44.858;38.372;2023-04-08T15:08:23;15.10;75.23
64918;HTU21D;52176;44.858;38.372;2023-04-08T15:10:48;15.07;75.20
64918;HTU21D;52176;44.858;38.372;2023-04-08T15:13:14;15.04;74.99
64918;HTU21D;52176;44.858;38.372;2023-04-08T15:15:40;14.96;74.92
64918;HTU21D;52176;44.858;38.372;2023-04-08T15:18:06;14.87;74.92
64918;HTU21D;52176;44.858;38.372;2023-04-08T15:20:32;14.79;75.39
64918;HTU21D;52176;44.858;38.372;2023-04-08T15:22:57;14.73;75.68
64918;HTU21D;52176;44.858;38.372;2023-04-08T15:25:23;14.77;78.98